Aérodrome :
LOGIN :

S'inscrire | Disclaimer

   EN    FR    IT 

 










Légende :    VFR   VFR Marginal   IFR   IFR Intensif   IFR Très Intensif
Visi : 
Plafond : 
>= 8 km
>= 3000ft
5 à 8 km
1000 à 3000 ft
1500m à 5 km
500 à 1000 ft
800 à 1500m
200 à 500 ft
< 800m
< 200 ft
Symboles :   Orages  Brouillard  Fortes neiges  Fortes précipitations  Vent > 20 kt
SIGMETs :   Divers  Orages  Givrage  Turbulence  Onde Orograph.  Cendres Volcan.







- Altitude de l'aérodrome : 200 ft


EBBL - Klein Brogel AB

DERNIER METAR :
  • 242125Z AUTO 25004KT 9999 NCD 04/M01 Q1026 BLU

METARs EXPIRÉS :
  • 242055Z AUTO 26003KT 9999 NCD 04/M00 Q1026 BLU
  • 241955Z AUTO 29003KT 9999 NCD 06/M00 Q1026 BLU
  • 241925Z AUTO 29004KT 9999 NCD 07/M01 Q1026 BLU

TAF TAF EBBL
Valide du 24 à 19h jusqu'au 25 à 07h UTC


241541Z 2419/2507 27010KT 9999 FEW045
BECMG 2502/2504 30010KT BKN020
TEMPO 2502/2507 30010G20KT 5000 -SHRA SCT010 BKN015
BECMG 2506/2507 32015G28KT
Pas de NOTAMs connus pour ce terrain.



MET'MAP, la Météo Aéronautique d'un coup d'oeil ! - Copyright ORBIFLY Décembre 2007 - Disclaimer

ORBIFLY MET'MAP TEAM :

Programmation & Développement : Alexandra Zaïnal
Conception & Développement : Baudouin d'Aumeries
Co-Programmation & Développement : Marc-Olivier Méhu
Soutien technique & logistique : Manuel Goepfert

Contact : metmap@orbifly.com




SOURCES & CREDITS :

   NOAA